sensor_id;sensor_type;location;lat;lon;timestamp;P1;durP1;ratioP1;P2;durP2;ratioP2
7527;SDS011;3805;49.006;8.514;2022-07-12T00:02:11;4.40;;;4.00;;
7527;SDS011;3805;49.006;8.514;2022-07-12T00:04:59;4.23;;;3.83;;
7527;SDS011;3805;49.006;8.514;2022-07-12T00:07:48;4.80;;;4.27;;
7527;SDS011;3805;49.006;8.514;2022-07-12T00:10:36;4.50;;;4.20;;
7527;SDS011;3805;49.006;8.514;2022-07-12T00:13:25;5.10;;;4.70;;
7527;SDS011;3805;49.006;8.514;2022-07-12T00:16:14;4.60;;;4.30;;
7527;SDS011;3805;49.006;8.514;2022-07-12T00:19:04;4.50;;;4.10;;
7527;SDS011;3805;49.006;8.514;2022-07-12T00:21:52;6.00;;;4.10;;
7527;SDS011;3805;49.006;8.514;2022-07-12T00:24:41;4.90;;;4.50;;
7527;SDS011;3805;49.006;8.514;2022-07-12T00:27:29;4.93;;;4.63;;
7527;SDS011;3805;49.006;8.514;2022-07-12T00:30:18;5.30;;;4.83;;
7527;SDS011;3805;49.006;8.514;2022-07-12T00:33:06;5.30;;;4.90;;
7527;SDS011;3805;49.006;8.514;2022-07-12T00:35:57;4.10;;;3.80;;
7527;SDS011;3805;49.006;8.514;2022-07-12T00:38:45;5.77;;;5.07;;
7527;SDS011;3805;49.006;8.514;2022-07-12T00:41:34;8.77;;;4.90;;
7527;SDS011;3805;49.006;8.514;2022-07-12T00:44:23;5.13;;;4.73;;
7527;SDS011;3805;49.006;8.514;2022-07-12T00:47:18;5.10;;;4.70;;
7527;SDS011;3805;49.006;8.514;2022-07-12T00:50:11;4.40;;;4.10;;
7527;SDS011;3805;49.006;8.514;2022-07-12T00:53:02;5.20;;;4.80;;
7527;SDS011;3805;49.006;8.514;2022-07-12T00:55:52;5.83;;;4.77;;
7527;SDS011;3805;49.006;8.514;2022-07-12T00:58:42;7.67;;;4.83;;
7527;SDS011;3805;49.006;8.514;2022-07-12T01:01:31;5.43;;;5.03;;
7527;SDS011;3805;49.006;8.514;2022-07-12T01:04:20;5.30;;;4.90;;
7527;SDS011;3805;49.006;8.514;2022-07-12T01:07:08;5.13;;;4.63;;
7527;SDS011;3805;49.006;8.514;2022-07-12T01:09:58;5.33;;;4.97;;
7527;SDS011;3805;49.006;8.514;2022-07-12T01:12:47;5.33;;;4.83;;
7527;SDS011;3805;49.006;8.514;2022-07-12T01:15:37;5.30;;;4.90;;
7527;SDS011;3805;49.006;8.514;2022-07-12T01:18:26;5.17;;;4.67;;
7527;SDS011;3805;49.006;8.514;2022-07-12T01:21:15;5.30;;;4.80;;
7527;SDS011;3805;49.006;8.514;2022-07-12T01:24:08;4.67;;;4.27;;
7527;SDS011;3805;49.006;8.514;2022-07-12T01:26:58;5.33;;;4.83;;
7527;SDS011;3805;49.006;8.514;2022-07-12T01:29:46;5.33;;;4.90;;
7527;SDS011;3805;49.006;8.514;2022-07-12T01:32:35;5.20;;;4.63;;
7527;SDS011;3805;49.006;8.514;2022-07-12T01:35:24;4.77;;;3.90;;
7527;SDS011;3805;49.006;8.514;2022-07-12T01:38:12;5.07;;;4.67;;
7527;SDS011;3805;49.006;8.514;2022-07-12T01:41:02;5.37;;;4.90;;
7527;SDS011;3805;49.006;8.514;2022-07-12T01:43:52;5.83;;;5.33;;
7527;SDS011;3805;49.006;8.514;2022-07-12T01:46:40;5.73;;;5.03;;
7527;SDS011;3805;49.006;8.514;2022-07-12T01:49:29;5.43;;;5.10;;
7527;SDS011;3805;49.006;8.514;2022-07-12T01:52:18;6.40;;;4.70;;
7527;SDS011;3805;49.006;8.514;2022-07-12T01:55:08;4.60;;;4.30;;
7527;SDS011;3805;49.006;8.514;2022-07-12T01:57:58;5.20;;;4.90;;
7527;SDS011;3805;49.006;8.514;2022-07-12T02:00:47;5.07;;;4.77;;
7527;SDS011;3805;49.006;8.514;2022-07-12T02:03:39;4.80;;;4.50;;
7527;SDS011;3805;49.006;8.514;2022-07-12T02:06:28;4.97;;;4.63;;
7527;SDS011;3805;49.006;8.514;2022-07-12T02:09:17;5.63;;;5.23;;
7527;SDS011;3805;49.006;8.514;2022-07-12T02:12:06;5.53;;;5.13;;
7527;SDS011;3805;49.006;8.514;2022-07-12T02:14:57;5.20;;;4.80;;
7527;SDS011;3805;49.006;8.514;2022-07-12T02:17:45;5.27;;;4.90;;
7527;SDS011;3805;49.006;8.514;2022-07-12T02:20:34;5.90;;;5.40;;
7527;SDS011;3805;49.006;8.514;2022-07-12T02:23:23;6.10;;;5.60;;
7527;SDS011;3805;49.006;8.514;2022-07-12T02:26:12;5.60;;;5.20;;
7527;SDS011;3805;49.006;8.514;2022-07-12T02:29:00;4.93;;;4.60;;
7527;SDS011;3805;49.006;8.514;2022-07-12T02:31:50;5.40;;;5.10;;
7527;SDS011;3805;49.006;8.514;2022-07-12T02:34:39;7.27;;;4.80;;
7527;SDS011;3805;49.006;8.514;2022-07-12T02:37:27;5.47;;;5.07;;
7527;SDS011;3805;49.006;8.514;2022-07-12T02:40:16;5.37;;;4.97;;
7527;SDS011;3805;49.006;8.514;2022-07-12T02:43:22;5.13;;;4.77;;
7527;SDS011;3805;49.006;8.514;2022-07-12T02:46:12;4.90;;;4.50;;
7527;SDS011;3805;49.006;8.514;2022-07-12T02:49:03;4.87;;;4.57;;
7527;SDS011;3805;49.006;8.514;2022-07-12T02:51:51;5.00;;;4.53;;
7527;SDS011;3805;49.006;8.514;2022-07-12T02:54:40;6.37;;;5.40;;
7527;SDS011;3805;49.006;8.514;2022-07-12T02:57:28;4.73;;;4.33;;
7527;SDS011;3805;49.006;8.514;2022-07-12T03:00:17;5.03;;;4.40;;
7527;SDS011;3805;49.006;8.514;2022-07-12T03:03:05;4.43;;;4.13;;
7527;SDS011;3805;49.006;8.514;2022-07-12T03:05:56;4.40;;;4.10;;
7527;SDS011;3805;49.006;8.514;2022-07-12T03:08:45;5.87;;;4.80;;
7527;SDS011;3805;49.006;8.514;2022-07-12T03:11:33;5.30;;;4.80;;
7527;SDS011;3805;49.006;8.514;2022-07-12T03:14:22;5.53;;;4.87;;
7527;SDS011;3805;49.006;8.514;2022-07-12T03:17:10;7.10;;;5.70;;
7527;SDS011;3805;49.006;8.514;2022-07-12T03:19:59;5.27;;;4.87;;
7527;SDS011;3805;49.006;8.514;2022-07-12T03:22:49;5.80;;;5.03;;
7527;SDS011;3805;49.006;8.514;2022-07-12T03:25:39;5.80;;;5.40;;
7527;SDS011;3805;49.006;8.514;2022-07-12T03:28:28;5.60;;;5.23;;
7527;SDS011;3805;49.006;8.514;2022-07-12T03:31:16;5.93;;;5.43;;
7527;SDS011;3805;49.006;8.514;2022-07-12T03:34:05;6.40;;;5.90;;
7527;SDS011;3805;49.006;8.514;2022-07-12T03:36:56;6.37;;;5.87;;
7527;SDS011;3805;49.006;8.514;2022-07-12T03:39:45;6.17;;;5.73;;
7527;SDS011;3805;49.006;8.514;2022-07-12T03:42:34;6.23;;;5.73;;
7527;SDS011;3805;49.006;8.514;2022-07-12T03:45:23;6.00;;;5.50;;
7527;SDS011;3805;49.006;8.514;2022-07-12T03:48:11;6.47;;;5.97;;
7527;SDS011;3805;49.006;8.514;2022-07-12T03:51:00;6.30;;;5.80;;
7527;SDS011;3805;49.006;8.514;2022-07-12T03:53:49;6.13;;;5.63;;
7527;SDS011;3805;49.006;8.514;2022-07-12T03:56:39;5.80;;;5.30;;
7527;SDS011;3805;49.006;8.514;2022-07-12T03:59:45;5.33;;;4.93;;
7527;SDS011;3805;49.006;8.514;2022-07-12T04:02:36;5.83;;;5.43;;
7527;SDS011;3805;49.006;8.514;2022-07-12T04:05:26;5.47;;;5.03;;
7527;SDS011;3805;49.006;8.514;2022-07-12T04:08:15;6.77;;;5.67;;
7527;SDS011;3805;49.006;8.514;2022-07-12T04:11:04;4.80;;;4.50;;
7527;SDS011;3805;49.006;8.514;2022-07-12T04:13:54;5.00;;;4.53;;
7527;SDS011;3805;49.006;8.514;2022-07-12T04:16:43;5.77;;;5.27;;
7527;SDS011;3805;49.006;8.514;2022-07-12T04:19:32;5.07;;;4.77;;
7527;SDS011;3805;49.006;8.514;2022-07-12T04:22:21;4.93;;;4.63;;
7527;SDS011;3805;49.006;8.514;2022-07-12T04:25:09;5.60;;;5.10;;
7527;SDS011;3805;49.006;8.514;2022-07-12T04:27:58;6.07;;;5.00;;
7527;SDS011;3805;49.006;8.514;2022-07-12T04:30:48;5.83;;;5.33;;
7527;SDS011;3805;49.006;8.514;2022-07-12T04:33:37;6.27;;;5.77;;
7527;SDS011;3805;49.006;8.514;2022-07-12T04:36:26;5.70;;;5.30;;
7527;SDS011;3805;49.006;8.514;2022-07-12T04:39:14;5.97;;;5.50;;
7527;SDS011;3805;49.006;8.514;2022-07-12T04:42:03;6.80;;;6.20;;
7527;SDS011;3805;49.006;8.514;2022-07-12T04:44:53;7.00;;;6.30;;
7527;SDS011;3805;49.006;8.514;2022-07-12T04:47:43;7.27;;;5.70;;
7527;SDS011;3805;49.006;8.514;2022-07-12T04:50:32;6.63;;;6.13;;
7527;SDS011;3805;49.006;8.514;2022-07-12T04:53:20;5.63;;;5.23;;
7527;SDS011;3805;49.006;8.514;2022-07-12T04:56:09;6.80;;;6.20;;
7527;SDS011;3805;49.006;8.514;2022-07-12T04:58:57;6.33;;;5.83;;
7527;SDS011;3805;49.006;8.514;2022-07-12T05:01:47;5.97;;;5.50;;
7527;SDS011;3805;49.006;8.514;2022-07-12T05:04:38;7.40;;;6.80;;
7527;SDS011;3805;49.006;8.514;2022-07-12T05:07:26;6.37;;;5.77;;
7527;SDS011;3805;49.006;8.514;2022-07-12T05:10:15;6.30;;;5.90;;
7527;SDS011;3805;49.006;8.514;2022-07-12T05:13:04;5.70;;;5.30;;
7527;SDS011;3805;49.006;8.514;2022-07-12T05:15:52;7.77;;;5.73;;
7527;SDS011;3805;49.006;8.514;2022-07-12T05:18:41;6.13;;;5.50;;
7527;SDS011;3805;49.006;8.514;2022-07-12T05:21:31;6.00;;;5.50;;
7527;SDS011;3805;49.006;8.514;2022-07-12T05:24:21;5.70;;;5.20;;
7527;SDS011;3805;49.006;8.514;2022-07-12T05:27:10;6.57;;;5.37;;
7527;SDS011;3805;49.006;8.514;2022-07-12T05:30:00;5.10;;;4.70;;
7527;SDS011;3805;49.006;8.514;2022-07-12T05:32:49;5.50;;;5.10;;
7527;SDS011;3805;49.006;8.514;2022-07-12T05:35:38;5.63;;;5.13;;
7527;SDS011;3805;49.006;8.514;2022-07-12T05:38:28;5.93;;;5.47;;
7527;SDS011;3805;49.006;8.514;2022-07-12T05:41:16;4.97;;;4.57;;
7527;SDS011;3805;49.006;8.514;2022-07-12T05:44:05;5.10;;;4.70;;
7527;SDS011;3805;49.006;8.514;2022-07-12T05:46:53;5.07;;;4.70;;
7527;SDS011;3805;49.006;8.514;2022-07-12T05:49:42;4.77;;;4.40;;
7527;SDS011;3805;49.006;8.514;2022-07-12T05:52:31;5.60;;;5.20;;
7527;SDS011;3805;49.006;8.514;2022-07-12T05:55:39;4.30;;;4.00;;
7527;SDS011;3805;49.006;8.514;2022-07-12T05:58:28;4.50;;;4.20;;
7527;SDS011;3805;49.006;8.514;2022-07-12T06:01:17;5.57;;;4.33;;
7527;SDS011;3805;49.006;8.514;2022-07-12T06:04:05;5.10;;;4.70;;
7527;SDS011;3805;49.006;8.514;2022-07-12T06:06:54;6.03;;;4.00;;
7527;SDS011;3805;49.006;8.514;2022-07-12T06:09:43;4.13;;;3.83;;
7527;SDS011;3805;49.006;8.514;2022-07-12T06:12:33;5.00;;;4.00;;
7527;SDS011;3805;49.006;8.514;2022-07-12T06:15:22;3.90;;;3.60;;
7527;SDS011;3805;49.006;8.514;2022-07-12T06:18:17;5.13;;;4.73;;
7527;SDS011;3805;49.006;8.514;2022-07-12T06:21:06;5.60;;;3.37;;
7527;SDS011;3805;49.006;8.514;2022-07-12T06:23:54;4.47;;;3.77;;
7527;SDS011;3805;49.006;8.514;2022-07-12T06:26:43;3.70;;;2.90;;
7527;SDS011;3805;49.006;8.514;2022-07-12T06:29:33;5.30;;;3.13;;
7527;SDS011;3805;49.006;8.514;2022-07-12T06:32:21;4.50;;;2.63;;
7527;SDS011;3805;49.006;8.514;2022-07-12T06:35:10;2.70;;;2.50;;
7527;SDS011;3805;49.006;8.514;2022-07-12T06:37:59;2.80;;;2.60;;
7527;SDS011;3805;49.006;8.514;2022-07-12T06:40:47;2.47;;;2.27;;
7527;SDS011;3805;49.006;8.514;2022-07-12T06:43:36;2.57;;;2.37;;
7527;SDS011;3805;49.006;8.514;2022-07-12T06:46:26;2.50;;;2.30;;
7527;SDS011;3805;49.006;8.514;2022-07-12T06:49:14;2.17;;;2.00;;
7527;SDS011;3805;49.006;8.514;2022-07-12T06:52:03;2.23;;;2.03;;
7527;SDS011;3805;49.006;8.514;2022-07-12T06:54:52;1.90;;;1.80;;
7527;SDS011;3805;49.006;8.514;2022-07-12T06:57:41;3.03;;;1.83;;
7527;SDS011;3805;49.006;8.514;2022-07-12T07:00:29;1.97;;;1.87;;
7527;SDS011;3805;49.006;8.514;2022-07-12T07:03:20;1.63;;;1.30;;
7527;SDS011;3805;49.006;8.514;2022-07-12T07:06:08;1.50;;;1.40;;
7527;SDS011;3805;49.006;8.514;2022-07-12T07:08:57;1.40;;;1.30;;
7527;SDS011;3805;49.006;8.514;2022-07-12T07:11:45;1.73;;;1.40;;
7527;SDS011;3805;49.006;8.514;2022-07-12T07:14:34;1.57;;;1.47;;
7527;SDS011;3805;49.006;8.514;2022-07-12T07:17:22;1.97;;;1.20;;
7527;SDS011;3805;49.006;8.514;2022-07-12T07:20:12;1.17;;;0.97;;
7527;SDS011;3805;49.006;8.514;2022-07-12T07:23:02;1.30;;;1.20;;
7527;SDS011;3805;49.006;8.514;2022-07-12T07:25:50;1.10;;;1.00;;
7527;SDS011;3805;49.006;8.514;2022-07-12T07:28:39;1.80;;;1.13;;
7527;SDS011;3805;49.006;8.514;2022-07-12T07:31:41;1.20;;;1.00;;
7527;SDS011;3805;49.006;8.514;2022-07-12T07:34:30;1.10;;;1.00;;
7527;SDS011;3805;49.006;8.514;2022-07-12T07:37:20;1.60;;;1.20;;
7527;SDS011;3805;49.006;8.514;2022-07-12T07:40:10;1.27;;;1.10;;
7527;SDS011;3805;49.006;8.514;2022-07-12T07:42:59;1.20;;;1.10;;
7527;SDS011;3805;49.006;8.514;2022-07-12T07:45:47;2.40;;;1.10;;
7527;SDS011;3805;49.006;8.514;2022-07-12T07:48:37;1.50;;;1.20;;
7527;SDS011;3805;49.006;8.514;2022-07-12T07:51:25;1.30;;;1.00;;
7527;SDS011;3805;49.006;8.514;2022-07-12T07:54:15;1.67;;;1.30;;
7527;SDS011;3805;49.006;8.514;2022-07-12T07:57:04;1.47;;;1.00;;
7527;SDS011;3805;49.006;8.514;2022-07-12T07:59:53;2.13;;;1.30;;
7527;SDS011;3805;49.006;8.514;2022-07-12T08:02:42;1.20;;;1.10;;
7527;SDS011;3805;49.006;8.514;2022-07-12T08:05:30;1.57;;;1.10;;
7527;SDS011;3805;49.006;8.514;2022-07-12T08:08:19;1.10;;;1.00;;
7527;SDS011;3805;49.006;8.514;2022-07-12T08:11:09;1.27;;;1.00;;
7527;SDS011;3805;49.006;8.514;2022-07-12T08:13:58;1.00;;;0.90;;
7527;SDS011;3805;49.006;8.514;2022-07-12T08:16:46;1.30;;;1.10;;
7527;SDS011;3805;49.006;8.514;2022-07-12T08:19:35;1.00;;;0.90;;
7527;SDS011;3805;49.006;8.514;2022-07-12T08:22:24;1.20;;;0.90;;
7527;SDS011;3805;49.006;8.514;2022-07-12T08:25:12;1.00;;;0.90;;
7527;SDS011;3805;49.006;8.514;2022-07-12T08:28:10;1.43;;;0.90;;
7527;SDS011;3805;49.006;8.514;2022-07-12T08:30:58;1.00;;;0.80;;
7527;SDS011;3805;49.006;8.514;2022-07-12T08:33:47;1.17;;;1.07;;
7527;SDS011;3805;49.006;8.514;2022-07-12T08:36:36;1.07;;;0.97;;
7527;SDS011;3805;49.006;8.514;2022-07-12T08:39:24;1.10;;;1.00;;
7527;SDS011;3805;49.006;8.514;2022-07-12T08:42:14;1.83;;;1.00;;
7527;SDS011;3805;49.006;8.514;2022-07-12T08:45:06;1.63;;;1.10;;
7527;SDS011;3805;49.006;8.514;2022-07-12T08:47:55;1.20;;;0.90;;
7527;SDS011;3805;49.006;8.514;2022-07-12T08:50:44;1.40;;;1.00;;
7527;SDS011;3805;49.006;8.514;2022-07-12T08:53:48;1.20;;;1.10;;
7527;SDS011;3805;49.006;8.514;2022-07-12T08:56:53;1.30;;;0.90;;
7527;SDS011;3805;49.006;8.514;2022-07-12T08:59:47;1.20;;;1.10;;
7527;SDS011;3805;49.006;8.514;2022-07-12T09:02:44;0.90;;;0.80;;
7527;SDS011;3805;49.006;8.514;2022-07-12T09:05:37;1.00;;;0.80;;
7527;SDS011;3805;49.006;8.514;2022-07-12T09:08:27;1.10;;;1.00;;
7527;SDS011;3805;49.006;8.514;2022-07-12T09:11:17;1.00;;;0.83;;
7527;SDS011;3805;49.006;8.514;2022-07-12T09:14:06;1.20;;;0.90;;
7527;SDS011;3805;49.006;8.514;2022-07-12T09:16:58;1.00;;;0.90;;
7527;SDS011;3805;49.006;8.514;2022-07-12T09:19:55;2.17;;;1.10;;
7527;SDS011;3805;49.006;8.514;2022-07-12T09:22:50;1.10;;;1.00;;
7527;SDS011;3805;49.006;8.514;2022-07-12T09:25:43;1.00;;;0.90;;
7527;SDS011;3805;49.006;8.514;2022-07-12T09:28:32;1.00;;;0.83;;
7527;SDS011;3805;49.006;8.514;2022-07-12T09:31:21;0.90;;;0.70;;
7527;SDS011;3805;49.006;8.514;2022-07-12T09:34:09;0.90;;;0.80;;
7527;SDS011;3805;49.006;8.514;2022-07-12T09:37:17;1.90;;;1.07;;
7527;SDS011;3805;49.006;8.514;2022-07-12T09:40:07;1.87;;;1.60;;
7527;SDS011;3805;49.006;8.514;2022-07-12T09:42:57;1.70;;;1.20;;
7527;SDS011;3805;49.006;8.514;2022-07-12T09:45:46;1.03;;;0.93;;
7527;SDS011;3805;49.006;8.514;2022-07-12T09:48:35;1.17;;;1.00;;
7527;SDS011;3805;49.006;8.514;2022-07-12T09:51:25;1.40;;;1.00;;
7527;SDS011;3805;49.006;8.514;2022-07-12T09:54:17;1.00;;;0.90;;
7527;SDS011;3805;49.006;8.514;2022-07-12T09:57:19;1.00;;;0.90;;
7527;SDS011;3805;49.006;8.514;2022-07-12T10:00:10;2.17;;;1.60;;
7527;SDS011;3805;49.006;8.514;2022-07-12T10:02:59;1.50;;;1.00;;
7527;SDS011;3805;49.006;8.514;2022-07-12T10:05:49;1.23;;;0.83;;
7527;SDS011;3805;49.006;8.514;2022-07-12T10:08:38;0.97;;;0.87;;
7527;SDS011;3805;49.006;8.514;2022-07-12T10:11:29;1.10;;;1.00;;
7527;SDS011;3805;49.006;8.514;2022-07-12T10:14:38;0.90;;;0.80;;
7527;SDS011;3805;49.006;8.514;2022-07-12T10:17:27;1.17;;;1.07;;
7527;SDS011;3805;49.006;8.514;2022-07-12T10:20:16;1.00;;;0.83;;
7527;SDS011;3805;49.006;8.514;2022-07-12T10:26:24;0.90;;;0.80;;
7527;SDS011;3805;49.006;8.514;2022-07-12T10:29:15;0.93;;;0.83;;
7527;SDS011;3805;49.006;8.514;2022-07-12T10:32:17;1.10;;;0.90;;
7527;SDS011;3805;49.006;8.514;2022-07-12T10:35:11;0.97;;;0.87;;
7527;SDS011;3805;49.006;8.514;2022-07-12T10:38:18;3.23;;;0.90;;
7527;SDS011;3805;49.006;8.514;2022-07-12T10:41:18;0.90;;;0.80;;
7527;SDS011;3805;49.006;8.514;2022-07-12T10:44:09;1.20;;;1.10;;
7527;SDS011;3805;49.006;8.514;2022-07-12T10:46:59;1.17;;;0.90;;
7527;SDS011;3805;49.006;8.514;2022-07-12T10:49:49;1.00;;;0.90;;
7527;SDS011;3805;49.006;8.514;2022-07-12T10:52:39;0.90;;;0.80;;
7527;SDS011;3805;49.006;8.514;2022-07-12T10:55:28;1.23;;;0.83;;
7527;SDS011;3805;49.006;8.514;2022-07-12T10:58:26;1.30;;;1.00;;
7527;SDS011;3805;49.006;8.514;2022-07-12T11:01:18;2.83;;;0.87;;
7527;SDS011;3805;49.006;8.514;2022-07-12T11:04:11;1.27;;;1.10;;
7527;SDS011;3805;49.006;8.514;2022-07-12T11:07:01;1.30;;;1.00;;
7527;SDS011;3805;49.006;8.514;2022-07-12T11:09:51;2.27;;;1.00;;
7527;SDS011;3805;49.006;8.514;2022-07-12T11:12:40;2.73;;;1.00;;
7527;SDS011;3805;49.006;8.514;2022-07-12T11:15:28;0.90;;;0.80;;
7527;SDS011;3805;49.006;8.514;2022-07-12T11:18:26;1.00;;;0.90;;
7527;SDS011;3805;49.006;8.514;2022-07-12T11:21:17;1.10;;;1.00;;
7527;SDS011;3805;49.006;8.514;2022-07-12T11:24:14;1.00;;;0.90;;
7527;SDS011;3805;49.006;8.514;2022-07-12T11:27:04;0.90;;;0.80;;
7527;SDS011;3805;49.006;8.514;2022-07-12T11:29:57;1.00;;;0.90;;
7527;SDS011;3805;49.006;8.514;2022-07-12T11:32:46;1.13;;;1.00;;
7527;SDS011;3805;49.006;8.514;2022-07-12T11:35:43;4.47;;;0.90;;
7527;SDS011;3805;49.006;8.514;2022-07-12T11:38:34;0.90;;;0.80;;
7527;SDS011;3805;49.006;8.514;2022-07-12T11:41:29;1.10;;;0.80;;
7527;SDS011;3805;49.006;8.514;2022-07-12T11:44:18;1.10;;;1.00;;
7527;SDS011;3805;49.006;8.514;2022-07-12T11:47:07;1.50;;;1.30;;
7527;SDS011;3805;49.006;8.514;2022-07-12T11:49:56;1.40;;;0.90;;
7527;SDS011;3805;49.006;8.514;2022-07-12T11:52:44;1.13;;;0.90;;
7527;SDS011;3805;49.006;8.514;2022-07-12T11:55:42;0.93;;;0.80;;
7527;SDS011;3805;49.006;8.514;2022-07-12T11:58:32;5.13;;;0.97;;
7527;SDS011;3805;49.006;8.514;2022-07-12T12:01:25;1.00;;;0.90;;
7527;SDS011;3805;49.006;8.514;2022-07-12T12:04:14;1.00;;;0.90;;
7527;SDS011;3805;49.006;8.514;2022-07-12T12:07:02;0.97;;;0.87;;
7527;SDS011;3805;49.006;8.514;2022-07-12T12:09:58;2.10;;;0.90;;
7527;SDS011;3805;49.006;8.514;2022-07-12T12:12:49;0.90;;;0.80;;
7527;SDS011;3805;49.006;8.514;2022-07-12T12:15:39;1.43;;;0.80;;
7527;SDS011;3805;49.006;8.514;2022-07-12T12:30:56;1.03;;;0.93;;
7527;SDS011;3805;49.006;8.514;2022-07-12T12:33:48;1.27;;;0.90;;
7527;SDS011;3805;49.006;8.514;2022-07-12T12:36:38;1.20;;;1.00;;
7527;SDS011;3805;49.006;8.514;2022-07-12T12:39:31;0.90;;;0.80;;
7527;SDS011;3805;49.006;8.514;2022-07-12T12:42:23;1.10;;;0.90;;
7527;SDS011;3805;49.006;8.514;2022-07-12T12:45:16;1.27;;;1.00;;
7527;SDS011;3805;49.006;8.514;2022-07-12T12:48:10;1.10;;;1.00;;
7527;SDS011;3805;49.006;8.514;2022-07-12T12:51:06;2.13;;;1.30;;
7527;SDS011;3805;49.006;8.514;2022-07-12T12:53:55;1.00;;;0.90;;
7527;SDS011;3805;49.006;8.514;2022-07-12T12:56:45;1.17;;;1.07;;
7527;SDS011;3805;49.006;8.514;2022-07-12T12:59:33;2.60;;;1.00;;
7527;SDS011;3805;49.006;8.514;2022-07-12T13:02:22;4.20;;;1.10;;
7527;SDS011;3805;49.006;8.514;2022-07-12T13:05:13;1.00;;;0.90;;
7527;SDS011;3805;49.006;8.514;2022-07-12T13:08:02;4.60;;;1.07;;
7527;SDS011;3805;49.006;8.514;2022-07-12T13:10:51;1.00;;;0.90;;
7527;SDS011;3805;49.006;8.514;2022-07-12T13:13:54;1.53;;;1.00;;
7527;SDS011;3805;49.006;8.514;2022-07-12T13:16:43;3.23;;;1.00;;
7527;SDS011;3805;49.006;8.514;2022-07-12T13:19:31;1.30;;;0.90;;
7527;SDS011;3805;49.006;8.514;2022-07-12T13:22:21;0.90;;;0.80;;
7527;SDS011;3805;49.006;8.514;2022-07-12T13:25:10;1.00;;;0.90;;
7527;SDS011;3805;49.006;8.514;2022-07-12T13:27:59;4.13;;;1.13;;
7527;SDS011;3805;49.006;8.514;2022-07-12T13:30:48;1.10;;;1.00;;
7527;SDS011;3805;49.006;8.514;2022-07-12T13:33:36;1.40;;;1.23;;
7527;SDS011;3805;49.006;8.514;2022-07-12T13:36:25;1.83;;;1.10;;
7527;SDS011;3805;49.006;8.514;2022-07-12T13:39:15;1.10;;;1.00;;
7527;SDS011;3805;49.006;8.514;2022-07-12T13:42:21;0.90;;;0.73;;
7527;SDS011;3805;49.006;8.514;2022-07-12T13:45:10;1.00;;;0.90;;
7527;SDS011;3805;49.006;8.514;2022-07-12T13:48:00;1.20;;;1.10;;
7527;SDS011;3805;49.006;8.514;2022-07-12T13:50:49;1.13;;;1.03;;
7527;SDS011;3805;49.006;8.514;2022-07-12T13:53:57;1.40;;;1.00;;
7527;SDS011;3805;49.006;8.514;2022-07-12T13:56:47;1.30;;;1.20;;
7527;SDS011;3805;49.006;8.514;2022-07-12T13:59:36;1.10;;;1.00;;
7527;SDS011;3805;49.006;8.514;2022-07-12T14:02:25;1.20;;;1.10;;
7527;SDS011;3805;49.006;8.514;2022-07-12T14:05:15;1.67;;;1.30;;
7527;SDS011;3805;49.006;8.514;2022-07-12T14:08:03;1.17;;;1.07;;
7527;SDS011;3805;49.006;8.514;2022-07-12T14:10:52;1.20;;;1.10;;
7527;SDS011;3805;49.006;8.514;2022-07-12T14:13:42;1.10;;;1.00;;
7527;SDS011;3805;49.006;8.514;2022-07-12T14:16:30;2.97;;;1.20;;
7527;SDS011;3805;49.006;8.514;2022-07-12T14:19:19;1.77;;;0.93;;
7527;SDS011;3805;49.006;8.514;2022-07-12T14:22:08;1.20;;;1.10;;
7527;SDS011;3805;49.006;8.514;2022-07-12T14:24:56;1.00;;;0.90;;
7527;SDS011;3805;49.006;8.514;2022-07-12T14:27:45;1.60;;;1.10;;
7527;SDS011;3805;49.006;8.514;2022-07-12T14:30:35;1.20;;;1.10;;
7527;SDS011;3805;49.006;8.514;2022-07-12T14:33:23;1.67;;;1.00;;
7527;SDS011;3805;49.006;8.514;2022-07-12T14:36:12;1.07;;;0.97;;
7527;SDS011;3805;49.006;8.514;2022-07-12T14:39:01;2.30;;;1.10;;
7527;SDS011;3805;49.006;8.514;2022-07-12T14:41:49;2.03;;;1.20;;
7527;SDS011;3805;49.006;8.514;2022-07-12T14:44:38;1.20;;;0.90;;
7527;SDS011;3805;49.006;8.514;2022-07-12T14:47:28;1.30;;;1.10;;
7527;SDS011;3805;49.006;8.514;2022-07-12T14:50:16;1.37;;;1.10;;
7527;SDS011;3805;49.006;8.514;2022-07-12T14:53:05;1.20;;;1.00;;
7527;SDS011;3805;49.006;8.514;2022-07-12T14:55:54;1.10;;;1.00;;
7527;SDS011;3805;49.006;8.514;2022-07-12T14:58:42;1.10;;;1.00;;
7527;SDS011;3805;49.006;8.514;2022-07-12T15:01:31;2.30;;;1.00;;
7527;SDS011;3805;49.006;8.514;2022-07-12T15:04:21;1.10;;;1.00;;
7527;SDS011;3805;49.006;8.514;2022-07-12T15:07:10;1.10;;;1.00;;
7527;SDS011;3805;49.006;8.514;2022-07-12T15:09:58;1.30;;;1.00;;
7527;SDS011;3805;49.006;8.514;2022-07-12T15:12:47;1.17;;;1.07;;
7527;SDS011;3805;49.006;8.514;2022-07-12T15:15:38;1.20;;;1.10;;
7527;SDS011;3805;49.006;8.514;2022-07-12T15:18:27;1.80;;;1.03;;
7527;SDS011;3805;49.006;8.514;2022-07-12T15:21:17;1.10;;;1.00;;
7527;SDS011;3805;49.006;8.514;2022-07-12T15:24:06;1.10;;;1.00;;
7527;SDS011;3805;49.006;8.514;2022-07-12T15:26:54;1.10;;;1.00;;
7527;SDS011;3805;49.006;8.514;2022-07-12T15:29:43;1.10;;;0.90;;
7527;SDS011;3805;49.006;8.514;2022-07-12T15:32:34;1.13;;;1.03;;
7527;SDS011;3805;49.006;8.514;2022-07-12T15:35:24;1.30;;;1.20;;
7527;SDS011;3805;49.006;8.514;2022-07-12T15:38:14;1.10;;;1.00;;
7527;SDS011;3805;49.006;8.514;2022-07-12T15:41:02;1.00;;;0.90;;
7527;SDS011;3805;49.006;8.514;2022-07-12T15:43:51;1.10;;;1.00;;
7527;SDS011;3805;49.006;8.514;2022-07-12T15:46:39;1.30;;;1.20;;
7527;SDS011;3805;49.006;8.514;2022-07-12T15:49:28;1.40;;;1.20;;
7527;SDS011;3805;49.006;8.514;2022-07-12T15:52:17;1.80;;;1.67;;
7527;SDS011;3805;49.006;8.514;2022-07-12T15:55:24;4.77;;;1.23;;
7527;SDS011;3805;49.006;8.514;2022-07-12T15:58:13;1.00;;;0.90;;
7527;SDS011;3805;49.006;8.514;2022-07-12T16:01:02;3.70;;;1.30;;
7527;SDS011;3805;49.006;8.514;2022-07-12T16:03:51;2.13;;;1.40;;
7527;SDS011;3805;49.006;8.514;2022-07-12T16:06:51;1.07;;;0.97;;
7527;SDS011;3805;49.006;8.514;2022-07-12T16:09:39;2.80;;;1.10;;
7527;SDS011;3805;49.006;8.514;2022-07-12T16:12:29;1.00;;;0.90;;
7527;SDS011;3805;49.006;8.514;2022-07-12T16:15:18;1.60;;;1.13;;
7527;SDS011;3805;49.006;8.514;2022-07-12T16:18:07;1.20;;;1.10;;
7527;SDS011;3805;49.006;8.514;2022-07-12T16:20:55;1.00;;;0.90;;
7527;SDS011;3805;49.006;8.514;2022-07-12T16:23:46;0.90;;;0.80;;
7527;SDS011;3805;49.006;8.514;2022-07-12T16:26:35;1.10;;;1.00;;
7527;SDS011;3805;49.006;8.514;2022-07-12T16:29:25;1.20;;;1.10;;
7527;SDS011;3805;49.006;8.514;2022-07-12T16:32:13;1.60;;;0.97;;
7527;SDS011;3805;49.006;8.514;2022-07-12T16:35:02;1.20;;;1.10;;
7527;SDS011;3805;49.006;8.514;2022-07-12T16:37:52;1.63;;;1.07;;
7527;SDS011;3805;49.006;8.514;2022-07-12T16:40:41;1.67;;;1.20;;
7527;SDS011;3805;49.006;8.514;2022-07-12T16:43:29;1.30;;;1.20;;
7527;SDS011;3805;49.006;8.514;2022-07-12T16:46:19;1.40;;;1.30;;
7527;SDS011;3805;49.006;8.514;2022-07-12T16:49:08;1.63;;;1.23;;
7527;SDS011;3805;49.006;8.514;2022-07-12T16:51:57;1.50;;;1.40;;
7527;SDS011;3805;49.006;8.514;2022-07-12T16:54:45;2.03;;;1.07;;
7527;SDS011;3805;49.006;8.514;2022-07-12T16:57:40;1.53;;;1.43;;
7527;SDS011;3805;49.006;8.514;2022-07-12T17:00:29;1.80;;;1.70;;
7527;SDS011;3805;49.006;8.514;2022-07-12T17:03:25;1.40;;;1.30;;
7527;SDS011;3805;49.006;8.514;2022-07-12T17:06:14;1.13;;;1.03;;
7527;SDS011;3805;49.006;8.514;2022-07-12T17:09:02;1.43;;;1.33;;
7527;SDS011;3805;49.006;8.514;2022-07-12T17:11:51;1.87;;;1.10;;
7527;SDS011;3805;49.006;8.514;2022-07-12T17:14:40;1.20;;;1.10;;
7527;SDS011;3805;49.006;8.514;2022-07-12T17:17:29;1.13;;;1.03;;
7527;SDS011;3805;49.006;8.514;2022-07-12T17:20:19;1.53;;;1.10;;
7527;SDS011;3805;49.006;8.514;2022-07-12T17:23:08;4.50;;;1.27;;
7527;SDS011;3805;49.006;8.514;2022-07-12T17:25:56;1.30;;;1.20;;
7527;SDS011;3805;49.006;8.514;2022-07-12T17:28:45;2.07;;;1.20;;
7527;SDS011;3805;49.006;8.514;2022-07-12T17:31:33;1.30;;;1.10;;
7527;SDS011;3805;49.006;8.514;2022-07-12T17:34:22;1.30;;;1.20;;
7527;SDS011;3805;49.006;8.514;2022-07-12T17:37:12;1.00;;;0.90;;
7527;SDS011;3805;49.006;8.514;2022-07-12T17:40:02;1.53;;;1.27;;
7527;SDS011;3805;49.006;8.514;2022-07-12T17:42:52;3.10;;;1.70;;
7527;SDS011;3805;49.006;8.514;2022-07-12T17:45:41;1.20;;;1.10;;
7527;SDS011;3805;49.006;8.514;2022-07-12T17:48:30;1.30;;;1.20;;
7527;SDS011;3805;49.006;8.514;2022-07-12T17:51:19;3.23;;;1.50;;
7527;SDS011;3805;49.006;8.514;2022-07-12T17:54:13;5.03;;;2.33;;